Time;durP1;ratioP1;P1;durP2;ratioP2;P2;SDS_P1;SDS_P2;PMS_P1;PMS_P2;Temp;Humidity;BMP_temperature;BMP_pressure;BME280_temperature;BME280_humidity;BME280_pressure;Samples;Min_cycle;Max_cycle;Signal;HPM_P1;HPM_P2
2024/01/18 00:00:27;;;;;;;4.83;4.43;;;;;;;7.28;88.83;93603.38;5066053;28;20206;-66
2024/01/18 00:02:52;;;;;;;6.83;4.83;;;;;;;7.24;88.79;93611.56;5067627;28;20213;-66
2024/01/18 00:05:18;;;;;;;4.70;4.30;;;;;;;7.30;88.95;93605.84;5067409;28;20428;-66
2024/01/18 00:07:43;;;;;;;4.60;4.20;;;;;;;7.31;88.58;93602.31;5065527;28;20209;-66
2024/01/18 00:10:10;;;;;;;4.80;4.40;;;;;;;7.32;89.20;93604.81;5065244;28;20271;-67
2024/01/18 00:12:36;;;;;;;4.37;3.90;;;;;;;7.35;89.31;93611.59;5074480;28;20170;-67
2024/01/18 00:15:03;;;;;;;6.37;4.73;;;;;;;7.34;88.47;93600.28;5070188;28;20431;-66
2024/01/18 00:17:28;;;;;;;5.10;4.07;;;;;;;7.32;89.02;93590.94;5069949;28;20470;-67
2024/01/18 00:19:54;;;;;;;5.00;4.60;;;;;;;7.41;88.64;93593.66;5076973;28;20467;-67
2024/01/18 00:22:19;;;;;;;4.63;3.60;;;;;;;7.46;88.72;93595.09;5071044;28;20351;-67
2024/01/18 00:24:45;;;;;;;4.13;3.37;;;;;;;7.40;88.98;93596.41;5069717;28;20193;-66
2024/01/18 00:27:11;;;;;;;5.50;4.10;;;;;;;7.35;88.92;93606.38;5069994;28;20186;-66
2024/01/18 00:29:36;;;;;;;3.77;3.47;;;;;;;7.33;89.50;93603.88;5068868;28;20728;-67
2024/01/18 00:32:01;;;;;;;3.50;3.20;;;;;;;7.46;89.35;93597.69;5071036;28;20193;-66
2024/01/18 00:34:27;;;;;;;5.60;3.33;;;;;;;7.50;89.30;93606.97;5076330;28;20208;-66
2024/01/18 00:36:52;;;;;;;3.50;2.97;;;;;;;7.42;88.83;93613.59;5068999;28;20182;-66
2024/01/18 00:39:19;;;;;;;3.80;3.40;;;;;;;7.44;89.13;93608.28;5069074;28;20275;-67
2024/01/18 00:41:47;;;;;;;4.37;3.03;;;;;;;7.54;89.00;93609.22;5068762;28;20247;-66
2024/01/18 00:44:14;;;;;;;3.90;3.07;;;;;;;7.55;89.16;93615.25;5068898;28;20455;-67
2024/01/18 00:46:39;;;;;;;4.30;3.63;;;;;;;7.47;89.43;93615.84;5069231;28;20432;-67
2024/01/18 00:49:05;;;;;;;3.17;2.87;;;;;;;7.52;88.56;93623.34;5068644;28;20514;-65
2024/01/18 00:51:30;;;;;;;7.30;3.10;;;;;;;7.50;88.84;93622.63;5067307;28;20174;-67
2024/01/18 00:53:56;;;;;;;3.50;2.90;;;;;;;7.51;89.00;93625.13;5069294;28;20217;-67
2024/01/18 00:56:21;;;;;;;5.13;3.20;;;;;;;7.60;88.49;93623.56;5069212;28;20223;-65
2024/01/18 00:58:47;;;;;;;4.03;3.43;;;;;;;7.52;88.71;93631.16;5069590;28;20252;-66
2024/01/18 01:01:12;;;;;;;3.20;3.00;;;;;;;7.56;88.84;93632.56;5068724;28;20683;-67
2024/01/18 01:03:38;;;;;;;3.57;2.73;;;;;;;7.58;89.00;93626.31;5072555;28;20265;-67
2024/01/18 01:06:04;;;;;;;3.23;2.80;;;;;;;7.51;88.85;93639.91;5068431;28;20209;-66
2024/01/18 01:08:29;;;;;;;4.03;3.00;;;;;;;7.51;88.89;93635.56;5068969;28;20174;-66
2024/01/18 01:10:55;;;;;;;3.10;2.70;;;;;;;7.59;89.31;93635.78;5073477;28;20422;-67
2024/01/18 01:13:20;;;;;;;3.07;2.77;;;;;;;7.64;88.90;93632.84;5069954;28;20228;-67
2024/01/18 01:15:47;;;;;;;4.00;3.23;;;;;;;7.63;88.33;93633.78;5068326;28;20178;-66
2024/01/18 01:18:12;;;;;;;3.20;2.90;;;;;;;7.65;88.21;93631.88;5068431;28;20178;-67
2024/01/18 01:20:38;;;;;;;2.60;2.40;;;;;;;7.55;89.39;93641.34;5067744;28;20475;-64
2024/01/18 01:23:04;;;;;;;2.60;2.40;;;;;;;7.58;88.71;93641.13;5067610;28;20247;-67
2024/01/18 01:25:29;;;;;;;2.93;2.63;;;;;;;7.59;88.73;93635.78;5067743;28;20178;-66
2024/01/18 01:27:54;;;;;;;2.63;2.43;;;;;;;7.71;88.65;93639.25;5068597;28;20193;-67
2024/01/18 01:30:20;;;;;;;3.83;2.70;;;;;;;7.77;87.63;93630.94;5067840;28;20284;-66
2024/01/18 01:32:45;;;;;;;2.53;2.20;;;;;;;7.80;87.51;93628.09;5067874;28;20571;-66
2024/01/18 01:35:11;;;;;;;1.93;1.83;;;;;;;7.72;87.92;93630.44;5068380;28;20190;-65
2024/01/18 01:37:37;;;;;;;2.50;2.30;;;;;;;7.78;87.66;93637.00;5068376;28;20570;-67
2024/01/18 01:40:05;;;;;;;1.70;1.60;;;;;;;7.74;88.34;93641.59;5067905;28;20464;-66
2024/01/18 01:42:30;;;;;;;4.63;2.10;;;;;;;7.73;88.02;93641.75;5069354;28;20217;-65
2024/01/18 01:44:56;;;;;;;3.00;2.03;;;;;;;7.64;88.90;93648.50;5069645;28;20417;-66
2024/01/18 01:47:21;;;;;;;2.50;2.20;;;;;;;7.65;88.36;93650.13;5080491;28;20648;-66
2024/01/18 01:49:48;;;;;;;2.50;2.30;;;;;;;7.74;88.49;93646.00;5073851;28;20210;-66
2024/01/18 01:52:14;;;;;;;2.20;2.00;;;;;;;7.77;88.66;93640.53;5068125;28;20235;-67
2024/01/18 01:54:39;;;;;;;2.00;1.90;;;;;;;7.75;88.18;93625.00;5070718;28;20420;-66
2024/01/18 01:57:05;;;;;;;2.50;2.30;;;;;;;7.83;87.47;93637.47;5069823;28;20517;-67
2024/01/18 01:59:32;;;;;;;2.23;1.97;;;;;;;7.76;88.86;93629.28;5068826;28;20245;-66
2024/01/18 02:01:58;;;;;;;2.20;2.00;;;;;;;7.80;88.25;93629.88;5070336;28;20206;-66
2024/01/18 02:04:24;;;;;;;2.70;2.50;;;;;;;7.84;88.08;93626.06;5079007;28;20478;-66
2024/01/18 02:06:55;;;;;;;2.20;1.53;;;;;;;7.87;87.48;93618.00;5079645;28;20417;-67
2024/01/18 02:09:21;;;;;;;3.03;2.03;;;;;;;7.89;87.38;93615.25;5090403;28;20428;-67
2024/01/18 02:11:47;;;;;;;2.27;1.70;;;;;;;7.79;88.16;93604.69;5091229;28;20423;-67
2024/01/18 02:14:12;;;;;;;2.10;1.90;;;;;;;7.84;87.57;93615.63;5075913;28;20423;-66
2024/01/18 02:16:38;;;;;;;5.27;1.97;;;;;;;7.85;88.00;93612.06;5075024;28;20537;-67
2024/01/18 02:19:03;;;;;;;2.00;1.90;;;;;;;7.80;87.70;93619.44;5067694;28;20272;-65
2024/01/18 02:21:29;;;;;;;2.30;2.10;;;;;;;7.90;87.14;93614.31;5067007;28;20293;-67
2024/01/18 02:24:02;;;;;;;2.00;1.83;;;;;;;7.87;87.53;93630.25;5066849;28;20185;-67
2024/01/18 02:26:27;;;;;;;2.27;1.67;;;;;;;7.96;86.85;93627.75;5066612;28;20170;-67
2024/01/18 02:28:57;;;;;;;2.33;1.60;;;;;;;7.92;87.30;93623.69;5067382;28;20444;-66
2024/01/18 02:31:23;;;;;;;2.33;1.77;;;;;;;7.90;87.18;93627.38;5068327;28;20194;-65
2024/01/18 02:33:49;;;;;;;2.00;1.67;;;;;;;7.91;87.40;93627.25;5068715;28;20444;-66
2024/01/18 02:36:15;;;;;;;2.20;1.60;;;;;;;7.91;87.17;93632.47;5069178;28;20174;-66
2024/01/18 02:38:41;;;;;;;2.70;1.73;;;;;;;7.93;87.73;93637.56;5068838;28;20941;-66
2024/01/18 02:41:07;;;;;;;1.60;1.50;;;;;;;7.94;87.68;93642.69;5069398;28;20210;-66
2024/01/18 02:43:33;;;;;;;1.40;1.30;;;;;;;7.93;87.39;93641.00;5069712;28;20416;-66
2024/01/18 02:45:58;;;;;;;1.83;1.60;;;;;;;7.94;87.39;93636.66;5070881;28;20270;-66
2024/01/18 02:48:24;;;;;;;1.43;1.33;;;;;;;7.97;87.17;93639.00;5069786;28;20480;-65
2024/01/18 02:50:49;;;;;;;2.53;1.50;;;;;;;7.89;88.21;93643.97;5069794;28;20239;-67
2024/01/18 02:53:15;;;;;;;1.90;1.63;;;;;;;7.82;88.35;93643.66;5069936;28;20173;-67
2024/01/18 02:55:40;;;;;;;3.57;1.50;;;;;;;7.80;88.09;93637.72;5070305;28;20180;-65
2024/01/18 02:58:05;;;;;;;1.40;1.30;;;;;;;7.77;88.53;93636.16;5070379;28;20261;-67
2024/01/18 03:00:31;;;;;;;1.73;1.63;;;;;;;7.82;87.80;93644.47;5070283;28;20613;-67
2024/01/18 03:02:56;;;;;;;1.57;1.47;;;;;;;7.76;88.18;93639.72;5071968;28;20170;-65
2024/01/18 03:05:21;;;;;;;3.17;1.60;;;;;;;7.84;88.01;93637.34;5070892;28;20190;-67
2024/01/18 03:07:47;;;;;;;1.77;1.50;;;;;;;7.87;87.71;93633.69;5069517;28;20209;-67
2024/01/18 03:10:12;;;;;;;2.50;1.67;;;;;;;7.94;87.26;93628.81;5069008;28;20206;-66
2024/01/18 03:12:39;;;;;;;1.60;1.40;;;;;;;7.89;87.00;93623.09;5075898;28;20170;-67
2024/01/18 03:15:05;;;;;;;2.10;1.73;;;;;;;8.02;85.78;93621.19;5069233;28;20189;-67
2024/01/18 03:17:31;;;;;;;1.53;1.40;;;;;;;7.92;86.41;93623.69;5075992;28;20544;-67
2024/01/18 03:19:57;;;;;;;1.80;1.70;;;;;;;7.88;86.11;93630.09;5067423;28;20464;-67
2024/01/18 03:22:23;;;;;;;1.73;1.50;;;;;;;7.94;86.10;93629.63;5066103;28;20221;-67
2024/01/18 03:24:50;;;;;;;2.30;1.27;;;;;;;7.89;85.83;93634.38;5066757;28;20444;-65
2024/01/18 03:27:16;;;;;;;1.40;1.30;;;;;;;7.85;86.17;93628.56;5067476;28;20670;-66
2024/01/18 03:29:42;;;;;;;1.33;1.23;;;;;;;7.89;85.73;93628.31;5081749;28;20470;-66
2024/01/18 03:32:07;;;;;;;2.30;1.53;;;;;;;7.87;85.94;93633.69;5066833;28;20848;-65
2024/01/18 03:34:32;;;;;;;1.37;1.27;;;;;;;7.88;85.94;93627.50;5066601;28;20182;-66
2024/01/18 03:36:58;;;;;;;1.23;1.13;;;;;;;7.75;85.99;93619.78;5066695;28;20261;-67
2024/01/18 03:39:23;;;;;;;1.30;1.20;;;;;;;7.88;86.47;93619.66;5074542;28;20284;-65
2024/01/18 03:41:48;;;;;;;1.63;1.20;;;;;;;7.79;86.58;93613.34;5065932;28;20221;-66
2024/01/18 03:44:15;;;;;;;1.00;0.87;;;;;;;7.80;86.13;93612.44;5066245;28;20273;-66
2024/01/18 03:46:40;;;;;;;1.57;1.00;;;;;;;7.91;86.36;93613.38;5067188;28;20344;-66
2024/01/18 03:49:06;;;;;;;1.40;1.20;;;;;;;7.84;86.13;93615.63;5066543;28;20858;-67
2024/01/18 03:51:31;;;;;;;2.47;1.60;;;;;;;7.95;85.77;93609.56;5066837;28;20174;-66
2024/01/18 03:53:56;;;;;;;2.33;1.30;;;;;;;7.92;85.82;93602.81;5067282;28;20177;-67
2024/01/18 03:56:22;;;;;;;1.40;1.23;;;;;;;7.89;85.96;93591.75;5067370;28;20611;-64
2024/01/18 03:58:47;;;;;;;1.30;1.20;;;;;;;7.96;84.89;93599.00;5067673;28;20198;-65
2024/01/18 04:01:13;;;;;;;1.40;1.23;;;;;;;7.98;84.98;93604.09;5067975;28;20661;-65
2024/01/18 04:03:42;;;;;;;1.30;1.20;;;;;;;7.91;84.89;93602.91;5072172;28;20193;-68
2024/01/18 04:06:10;;;;;;;1.63;1.03;;;;;;;7.90;84.96;93603.88;5069410;28;20189;-66
2024/01/18 04:08:36;;;;;;;3.17;1.10;;;;;;;7.93;84.56;93611.47;5072836;28;20480;-64
2024/01/18 04:11:02;;;;;;;1.20;1.07;;;;;;;7.93;85.05;93611.47;5079119;28;20471;-66
2024/01/18 04:13:27;;;;;;;1.13;1.03;;;;;;;7.96;84.24;93616.44;5069542;28;20204;-65
2024/01/18 04:15:52;;;;;;;1.77;1.43;;;;;;;7.91;84.99;93605.53;5068573;28;20424;-65
2024/01/18 04:18:18;;;;;;;2.13;1.27;;;;;;;7.94;84.80;93621.81;5078618;28;20193;-64
2024/01/18 04:20:43;;;;;;;1.20;1.00;;;;;;;7.98;84.26;93604.91;5083041;28;20263;-65
2024/01/18 04:23:09;;;;;;;1.87;1.00;;;;;;;8.03;83.63;93615.88;5066043;28;20170;-65
2024/01/18 04:25:34;;;;;;;1.30;1.10;;;;;;;7.95;84.86;93607.78;5065807;28;20220;-66
2024/01/18 04:28:00;;;;;;;1.47;0.90;;;;;;;7.96;84.65;93606.84;5065605;28;20805;-66
2024/01/18 04:30:25;;;;;;;1.20;1.10;;;;;;;7.95;83.94;93607.78;5065043;28;20664;-65
2024/01/18 04:32:50;;;;;;;2.07;1.00;;;;;;;7.97;83.76;93608.50;5074541;28;20246;-66
2024/01/18 04:35:16;;;;;;;1.20;1.00;;;;;;;7.95;83.72;93612.19;5074277;28;20174;-66
2024/01/18 04:37:41;;;;;;;1.13;1.03;;;;;;;7.94;83.24;93610.53;5064936;28;20194;-66
2024/01/18 04:40:07;;;;;;;1.00;0.80;;;;;;;7.91;83.88;93606.34;5065005;28;20213;-66
2024/01/18 04:42:33;;;;;;;2.73;1.10;;;;;;;7.96;83.44;93609.47;5065221;28;20181;-66
2024/01/18 04:44:59;;;;;;;3.13;1.20;;;;;;;7.94;83.65;93610.53;5065644;28;20507;-67
2024/01/18 04:47:24;;;;;;;1.53;0.97;;;;;;;7.87;83.40;93609.34;5066223;28;20185;-66
2024/01/18 04:49:50;;;;;;;1.60;1.00;;;;;;;7.92;83.67;93615.03;5064766;28;21049;-66
2024/01/18 04:52:15;;;;;;;3.10;1.00;;;;;;;7.83;84.14;93617.41;5064845;28;20190;-66
2024/01/18 04:54:41;;;;;;;2.27;1.20;;;;;;;7.90;83.02;93616.94;5070750;28;20182;-67
2024/01/18 04:57:06;;;;;;;1.20;1.00;;;;;;;7.91;83.49;93619.41;5065176;28;20189;-65
2024/01/18 04:59:32;;;;;;;2.03;0.90;;;;;;;7.86;83.03;93613.72;5068563;28;20197;-65
2024/01/18 05:01:58;;;;;;;1.20;0.90;;;;;;;7.84;82.74;93607.78;5068956;28;20983;-65
2024/01/18 05:04:23;;;;;;;1.50;1.10;;;;;;;7.79;83.15;93602.91;5072608;28;20775;-67
2024/01/18 05:06:48;;;;;;;0.90;0.80;;;;;;;7.77;83.59;93604.84;5068029;28;20408;-66
2024/01/18 05:09:16;;;;;;;1.20;0.83;;;;;;;7.75;82.68;93600.69;5069230;28;20198;-66
2024/01/18 05:11:42;;;;;;;1.37;0.80;;;;;;;7.69;82.95;93606.38;5075543;28;20204;-67
2024/01/18 05:14:09;;;;;;;1.13;0.77;;;;;;;7.70;83.06;93606.28;5069268;28;20945;-65
2024/01/18 05:16:39;;;;;;;0.90;0.70;;;;;;;7.62;83.10;93606.00;5069334;28;20409;-67
2024/01/18 05:19:05;;;;;;;4.70;0.80;;;;;;;7.74;82.67;93605.06;5069000;28;20474;-66
2024/01/18 05:21:30;;;;;;;1.37;1.00;;;;;;;7.82;82.85;93617.53;5068623;28;20463;-66
2024/01/18 05:23:55;;;;;;;1.73;0.90;;;;;;;7.84;81.79;93616.47;5068727;28;20282;-67
2024/01/18 05:26:21;;;;;;;1.30;0.83;;;;;;;7.70;82.75;93621.06;5069036;28;20239;-67
2024/01/18 05:28:46;;;;;;;1.20;0.83;;;;;;;7.68;83.01;93625.56;5068381;28;20189;-68
2024/01/18 05:31:12;;;;;;;1.30;1.00;;;;;;;7.80;82.14;93627.25;5061561;28;20225;-66
2024/01/18 05:33:37;;;;;;;1.40;1.00;;;;;;;7.75;82.12;93625.00;5067083;28;20178;-65
2024/01/18 05:36:03;;;;;;;1.50;1.10;;;;;;;7.73;81.94;93621.69;5068037;28;20220;-66
2024/01/18 05:38:32;;;;;;;1.40;0.90;;;;;;;7.61;82.36;93631.28;5067047;28;20248;-65
2024/01/18 05:40:58;;;;;;;1.33;1.00;;;;;;;7.67;82.38;93634.38;5070014;28;20827;-67
2024/01/18 05:43:23;;;;;;;1.20;0.93;;;;;;;7.55;82.10;93623.09;5070835;28;20409;-66
2024/01/18 05:45:49;;;;;;;1.20;1.00;;;;;;;7.68;81.69;93620.34;5062745;28;20179;-66
2024/01/18 05:48:14;;;;;;;1.70;1.20;;;;;;;7.70;81.53;93624.53;5049477;28;20167;-68
2024/01/18 05:50:40;;;;;;;1.50;1.40;;;;;;;7.69;81.36;93619.44;5048202;28;20175;-68
2024/01/18 05:53:05;;;;;;;1.00;0.90;;;;;;;7.52;81.83;93616.34;5047930;28;20206;-67
2024/01/18 05:55:31;;;;;;;1.03;0.80;;;;;;;7.63;82.33;93621.56;5046681;28;20638;-67
2024/01/18 05:57:56;;;;;;;1.20;1.00;;;;;;;7.58;81.71;93620.25;5048481;28;20269;-67
2024/01/18 06:00:24;;;;;;;1.13;0.83;;;;;;;7.63;81.93;93613.75;5051531;28;21143;-67
2024/01/18 06:02:49;;;;;;;3.43;1.10;;;;;;;7.46;82.18;93616.78;5061669;28;20258;-65
2024/01/18 06:05:15;;;;;;;3.00;1.10;;;;;;;7.50;81.96;93612.19;5063671;28;20501;-67
2024/01/18 06:07:40;;;;;;;3.53;1.10;;;;;;;7.57;81.32;93615.97;5064733;28;20777;-66
2024/01/18 06:10:06;;;;;;;3.53;1.00;;;;;;;7.62;81.54;93611.22;5062468;28;20275;-67
2024/01/18 06:12:32;;;;;;;1.50;1.13;;;;;;;7.60;81.57;93613.13;5058607;28;20189;-67
2024/01/18 06:14:58;;;;;;;1.20;1.10;;;;;;;7.55;81.16;93605.66;5056601;28;20512;-67
2024/01/18 06:17:23;;;;;;;1.50;1.10;;;;;;;7.54;81.34;93598.78;5062996;28;20716;-68
2024/01/18 06:19:48;;;;;;;3.90;1.50;;;;;;;7.52;81.62;93600.69;5064041;28;20205;-67
2024/01/18 06:22:14;;;;;;;3.13;1.80;;;;;;;7.55;80.90;93603.03;5064064;28;20175;-64
2024/01/18 06:24:39;;;;;;;3.57;2.33;;;;;;;7.54;81.42;93598.78;5069382;28;20205;-68
2024/01/18 06:27:05;;;;;;;1.83;1.17;;;;;;;7.50;81.50;93607.78;5061955;28;20263;-66
2024/01/18 06:29:30;;;;;;;4.23;1.43;;;;;;;7.41;81.98;93606.69;5064705;28;20193;-65
2024/01/18 06:31:56;;;;;;;3.63;2.03;;;;;;;7.38;81.90;93609.56;5065971;28;20166;-66
2024/01/18 06:34:22;;;;;;;3.53;3.20;;;;;;;7.42;81.30;93604.94;5067067;28;20179;-66
2024/01/18 06:36:47;;;;;;;4.57;1.93;;;;;;;7.43;80.59;93606.59;5065594;28;20193;-66
2024/01/18 06:39:14;;;;;;;6.67;1.30;;;;;;;7.36;81.79;93608.84;5067448;28;20182;-66
2024/01/18 06:41:39;;;;;;;5.07;1.93;;;;;;;7.36;81.48;93600.19;5066857;28;20210;-66
2024/01/18 06:44:05;;;;;;;7.63;1.60;;;;;;;7.33;81.62;93600.44;5067659;28;20493;-65
2024/01/18 06:46:31;;;;;;;1.80;1.30;;;;;;;7.37;81.66;93594.88;5066667;28;20174;-66
2024/01/18 06:48:57;;;;;;;2.87;1.53;;;;;;;7.35;81.62;93594.16;5066495;28;21166;-66
2024/01/18 06:51:23;;;;;;;2.67;2.13;;;;;;;7.42;81.06;93600.56;5067025;28;20680;-68
2024/01/18 06:53:49;;;;;;;3.53;1.30;;;;;;;7.35;81.15;93603.75;5067321;28;20166;-68
2024/01/18 06:56:15;;;;;;;1.93;1.37;;;;;;;7.30;81.37;93604.09;5065999;28;20462;-65
2024/01/18 06:58:41;;;;;;;4.87;1.43;;;;;;;7.33;81.29;93603.88;5064932;28;20177;-65
2024/01/18 07:01:06;;;;;;;2.73;1.40;;;;;;;7.31;81.51;93590.09;5066253;28;20194;-66
2024/01/18 07:03:35;;;;;;;3.40;1.50;;;;;;;7.29;81.19;93607.63;5066511;28;20413;-66
2024/01/18 07:06:04;;;;;;;2.23;1.47;;;;;;;7.32;81.31;93594.38;5066141;28;20170;-67
2024/01/18 07:08:30;;;;;;;4.10;1.50;;;;;;;7.31;80.80;93597.94;5066528;28;20404;-65
2024/01/18 07:10:57;;;;;;;2.40;1.20;;;;;;;7.29;81.10;93605.03;5066442;28;20446;-66
2024/01/18 07:13:22;;;;;;;2.20;1.67;;;;;;;7.33;81.27;93610.88;5065765;28;20423;-67
2024/01/18 07:15:48;;;;;;;1.77;1.40;;;;;;;7.31;80.90;93607.53;5065724;28;20841;-66
2024/01/18 07:18:13;;;;;;;2.83;1.77;;;;;;;7.41;80.42;93611.09;5066020;28;20974;-66
2024/01/18 07:20:39;;;;;;;4.23;2.33;;;;;;;7.32;81.42;93607.44;5058404;28;20202;-67
2024/01/18 07:23:04;;;;;;;2.40;1.60;;;;;;;7.26;81.35;93602.66;5070084;28;20660;-67
2024/01/18 07:25:30;;;;;;;2.33;1.63;;;;;;;7.41;80.78;93604.09;5064471;28;20174;-67
2024/01/18 07:27:55;;;;;;;1.93;1.70;;;;;;;7.37;80.65;93607.06;5060952;28;20232;-65
2024/01/18 07:30:22;;;;;;;4.43;3.10;;;;;;;7.40;80.72;93591.19;5065817;28;20190;-67
2024/01/18 07:32:47;;;;;;;1.80;1.53;;;;;;;7.47;80.68;93588.94;5065811;28;20178;-65
2024/01/18 07:35:14;;;;;;;3.13;1.47;;;;;;;7.45;81.20;93596.06;5069795;28;20424;-67
2024/01/18 07:37:39;;;;;;;6.43;4.73;;;;;;;7.45;81.49;93583.00;5065172;28;20522;-66
2024/01/18 07:40:06;;;;;;;8.60;2.70;;;;;;;7.50;81.21;93588.69;5079126;28;20442;-66
2024/01/18 07:42:31;;;;;;;4.93;2.03;;;;;;;7.56;80.83;93591.66;5076284;28;20189;-66
2024/01/18 07:44:57;;;;;;;20.97;4.30;;;;;;;7.64;80.18;93594.50;5077590;28;20511;-67
2024/01/18 07:47:22;;;;;;;5.97;2.27;;;;;;;7.62;80.91;93592.97;5067803;28;20197;-66
2024/01/18 07:49:48;;;;;;;2.33;1.90;;;;;;;7.65;80.39;93600.56;5067512;28;20208;-66
2024/01/18 07:52:13;;;;;;;2.53;1.90;;;;;;;7.76;79.50;93589.28;5067351;28;20217;-67
2024/01/18 07:54:39;;;;;;;5.83;2.40;;;;;;;7.75;79.92;93587.66;5067589;28;20173;-66
2024/01/18 07:57:04;;;;;;;2.73;1.87;;;;;;;7.77;79.65;93581.34;5068535;28;20268;-64
2024/01/18 07:59:30;;;;;;;2.17;1.97;;;;;;;7.80;80.09;93583.72;5067794;28;20202;-66
2024/01/18 08:01:56;;;;;;;1.83;1.63;;;;;;;7.83;79.86;93575.63;5067452;28;20641;-66
2024/01/18 08:04:22;;;;;;;3.47;1.40;;;;;;;8.10;79.25;93578.78;5068551;28;21009;-67
2024/01/18 08:06:47;;;;;;;2.83;1.80;;;;;;;8.47;78.10;93576.72;5068610;28;20261;-65
2024/01/18 08:09:13;;;;;;;2.50;1.60;;;;;;;8.97;75.61;93582.19;5067804;28;20523;-66
2024/01/18 08:11:38;;;;;;;3.80;1.80;;;;;;;9.19;74.04;93577.78;5067713;28;20892;-66
2024/01/18 08:14:03;;;;;;;9.63;2.87;;;;;;;9.46;72.99;93567.63;5067787;28;20626;-66
2024/01/18 08:16:29;;;;;;;3.50;1.77;;;;;;;9.42;72.83;93558.34;5068417;28;20724;-66
2024/01/18 08:18:55;;;;;;;4.23;1.70;;;;;;;9.65;71.98;93558.19;5068028;28;20200;-65
2024/01/18 08:21:21;;;;;;;3.57;1.47;;;;;;;10.75;68.44;93569.50;5068575;28;20610;-66
2024/01/18 08:23:47;;;;;;;2.70;1.40;;;;;;;11.96;63.54;93560.16;5068749;28;20474;-66
2024/01/18 08:26:13;;;;;;;1.70;1.23;;;;;;;13.13;60.62;93551.44;5068677;28;20416;-64
2024/01/18 08:28:38;;;;;;;2.47;1.30;;;;;;;13.00;59.77;93558.94;5068457;28;20174;-68
2024/01/18 08:31:03;;;;;;;3.80;1.50;;;;;;;12.60;60.86;93558.38;5068018;28;20160;-67
2024/01/18 08:33:29;;;;;;;3.70;1.40;;;;;;;11.30;64.70;93576.78;5070590;28;20166;-67
2024/01/18 08:35:54;;;;;;;2.13;1.03;;;;;;;10.64;67.07;93581.94;5071356;28;20170;-68
2024/01/18 08:38:22;;;;;;;2.20;1.40;;;;;;;10.16;69.65;93584.28;5071925;28;20217;-65
2024/01/18 08:40:48;;;;;;;3.43;1.20;;;;;;;9.88;71.21;93591.09;5072494;28;20669;-65
2024/01/18 08:43:13;;;;;;;1.50;1.07;;;;;;;9.61;72.15;93585.59;5072171;28;20522;-66
2024/01/18 08:45:41;;;;;;;3.10;1.50;;;;;;;9.68;72.34;93584.13;5071302;28;20178;-65
2024/01/18 08:48:06;;;;;;;4.10;1.17;;;;;;;9.72;72.50;93588.97;5069970;28;20184;-66
2024/01/18 08:50:32;;;;;;;1.40;0.90;;;;;;;9.95;71.75;93581.75;5071244;28;21174;-65
2024/01/18 08:52:57;;;;;;;2.50;1.40;;;;;;;10.15;71.00;93576.56;5075732;28;20174;-68
2024/01/18 08:55:23;;;;;;;1.90;1.00;;;;;;;11.16;67.21;93582.47;5075408;28;20202;-66
2024/01/18 08:57:49;;;;;;;3.33;1.23;;;;;;;11.83;65.50;93581.47;5075809;28;20178;-67
2024/01/18 09:00:17;;;;;;;7.43;1.37;;;;;;;11.70;64.44;93580.16;5075391;28;20206;-66
2024/01/18 09:02:44;;;;;;;3.53;1.30;;;;;;;10.85;67.39;93584.44;5067293;28;20435;-65
2024/01/18 09:05:10;;;;;;;3.60;1.20;;;;;;;10.45;69.03;93577.50;5067297;28;20436;-66
2024/01/18 09:07:35;;;;;;;1.83;1.30;;;;;;;10.56;69.48;93569.50;5063882;28;20467;-66
2024/01/18 09:10:01;;;;;;;4.13;3.73;;;;;;;10.89;67.71;93570.03;5065717;28;20286;-65
2024/01/18 09:12:26;;;;;;;1.73;1.20;;;;;;;10.71;68.20;93581.22;5069006;28;20269;-65
2024/01/18 09:14:54;;;;;;;1.73;1.00;;;;;;;10.68;68.29;93584.13;5069570;28;20181;-66
2024/01/18 09:17:20;;;;;;;2.13;0.90;;;;;;;10.78;67.97;93589.38;5068647;28;20170;-65
2024/01/18 09:19:46;;;;;;;1.37;1.03;;;;;;;12.07;64.13;93573.09;5080605;28;20482;-65
2024/01/18 09:22:11;;;;;;;1.77;1.10;;;;;;;12.47;62.16;93574.53;5066189;28;20464;-66
2024/01/18 09:24:36;;;;;;;1.90;1.30;;;;;;;11.80;63.27;93584.38;5065126;28;20295;-67
2024/01/18 09:27:02;;;;;;;1.10;0.97;;;;;;;11.51;64.96;93597.59;5065787;28;20209;-66
2024/01/18 09:29:27;;;;;;;1.83;1.20;;;;;;;11.21;66.04;93596.81;5065381;28;20284;-64
2024/01/18 09:31:53;;;;;;;1.43;1.00;;;;;;;10.74;67.37;93598.50;5065417;28;20957;-66
2024/01/18 09:34:19;;;;;;;1.50;0.90;;;;;;;10.56;68.18;93601.78;5066883;28;20193;-67
2024/01/18 09:36:44;;;;;;;5.13;1.03;;;;;;;10.44;68.87;93602.03;5066421;28;20420;-68
2024/01/18 09:39:15;;;;;;;3.00;1.27;;;;;;;10.22;69.95;93610.94;5066734;28;20201;-66
2024/01/18 09:41:42;;;;;;;3.00;1.00;;;;;;;10.25;70.05;93621.13;5062410;28;20210;-67
2024/01/18 09:44:11;;;;;;;1.83;0.90;;;;;;;10.11;70.54;93619.72;5062552;28;20463;-66
2024/01/18 09:46:38;;;;;;;3.90;1.30;;;;;;;10.12;71.36;93609.09;5065667;28;20423;-65
2024/01/18 09:49:06;;;;;;;2.50;1.00;;;;;;;10.35;70.25;93614.19;5066711;28;20447;-68
2024/01/18 09:51:33;;;;;;;2.03;1.40;;;;;;;10.37;70.16;93607.00;5066734;28;20408;-65
2024/01/18 09:54:00;;;;;;;2.20;1.13;;;;;;;10.54;69.65;93608.97;5066640;28;20435;-67
2024/01/18 09:56:29;;;;;;;1.57;1.03;;;;;;;10.54;69.46;93610.75;5066786;28;20186;-66
2024/01/18 09:58:55;;;;;;;2.03;1.30;;;;;;;10.27;70.81;93614.78;5066359;28;20444;-67
2024/01/18 10:01:22;;;;;;;3.57;0.90;;;;;;;10.22;71.54;93619.59;5066251;28;20562;-66
2024/01/18 10:03:49;;;;;;;3.90;1.13;;;;;;;10.23;71.79;93612.56;5067022;28;20421;-66
2024/01/18 10:06:16;;;;;;;2.63;1.13;;;;;;;10.38;71.41;93619.16;5067252;28;20496;-67
2024/01/18 10:08:41;;;;;;;1.43;1.20;;;;;;;10.44;71.40;93617.75;5067061;28;20783;-69
2024/01/18 10:11:07;;;;;;;4.10;1.07;;;;;;;10.64;70.26;93622.09;5066694;28;20425;-67
2024/01/18 10:13:55;;;;;;;14.50;2.20;;;;;;;10.72;70.23;93622.22;5066817;28;20174;-66
2024/01/18 10:16:30;;;;;;;13.77;3.00;;;;;;;10.78;70.63;93623.50;5066780;28;20273;-66
2024/01/18 10:18:57;;;;;;;17.90;3.03;;;;;;;10.73;70.17;93617.81;5078575;28;20436;-68
2024/01/18 10:21:23;;;;;;;14.50;2.50;;;;;;;10.55;71.55;93620.28;5083086;28;20459;-66
2024/01/18 10:23:51;;;;;;;8.70;1.43;;;;;;;10.74;71.01;93607.19;5067822;28;20425;-67
2024/01/18 10:26:17;;;;;;;8.53;1.67;;;;;;;10.92;70.27;93614.38;5068056;28;20424;-67
2024/01/18 10:28:43;;;;;;;2.97;1.30;;;;;;;11.41;69.22;93609.94;5067185;28;20416;-66
2024/01/18 10:31:09;;;;;;;1.73;1.20;;;;;;;11.77;67.66;93599.63;5067646;28;20951;-66
2024/01/18 10:33:34;;;;;;;2.53;1.00;;;;;;;11.70;68.03;93595.91;5059045;28;20265;-67
2024/01/18 10:36:00;;;;;;;1.60;1.20;;;;;;;11.93;67.09;93594.63;5067362;28;20672;-66
2024/01/18 10:38:29;;;;;;;23.70;3.97;;;;;;;11.94;66.98;93592.81;5066747;28;20194;-66
2024/01/18 10:40:57;;;;;;;16.23;4.37;;;;;;;11.97;66.67;93595.13;5066382;28;20543;-66
2024/01/18 10:43:24;;;;;;;16.67;3.47;;;;;;;12.06;66.22;93587.19;5059690;28;20427;-67
2024/01/18 10:45:50;;;;;;;16.97;2.73;;;;;;;12.05;66.72;93585.56;5065236;28;20421;-68
2024/01/18 10:48:15;;;;;;;2.67;1.20;;;;;;;11.90;66.94;93597.50;5066475;28;20428;-66
2024/01/18 10:50:42;;;;;;;7.57;1.20;;;;;;;11.75;67.37;93598.94;5066662;28;20652;-66
2024/01/18 10:53:09;;;;;;;1.90;1.10;;;;;;;11.61;68.58;93590.53;5066828;28;20233;-67
2024/01/18 10:55:35;;;;;;;2.30;1.10;;;;;;;11.55;68.96;93606.88;5066707;28;20515;-66
2024/01/18 10:58:00;;;;;;;1.63;1.00;;;;;;;11.59;68.70;93602.97;5066039;28;20527;-66
2024/01/18 11:00:25;;;;;;;2.20;1.13;;;;;;;11.51;68.14;93592.34;5065816;28;20212;-66
2024/01/18 11:02:51;;;;;;;12.67;2.67;;;;;;;11.36;69.90;93601.63;5063211;28;20209;-66
2024/01/18 11:05:20;;;;;;;5.43;1.57;;;;;;;11.33;70.18;93594.88;5064453;28;20188;-66
2024/01/18 11:07:46;;;;;;;4.40;1.57;;;;;;;11.41;68.99;93586.31;5066300;28;20428;-64
2024/01/18 11:10:12;;;;;;;2.00;1.30;;;;;;;11.64;68.69;93589.41;5066564;28;20753;-65
2024/01/18 11:12:49;;;;;;;4.30;1.03;;;;;;;11.68;68.11;93598.66;5061478;28;20186;-65
2024/01/18 11:15:16;;;;;;;1.87;1.03;;;;;;;11.72;68.51;93591.34;5059129;28;20780;-64
2024/01/18 11:17:48;;;;;;;2.23;1.50;;;;;;;11.85;68.12;93586.56;5065843;28;20479;-65
2024/01/18 11:20:15;;;;;;;1.60;1.13;;;;;;;12.04;67.58;93577.81;5066107;28;20558;-64
2024/01/18 11:22:41;;;;;;;2.00;1.13;;;;;;;12.05;67.23;93595.25;5060446;28;20417;-65
2024/01/18 11:25:09;;;;;;;1.33;0.90;;;;;;;11.99;67.12;93586.13;5067041;28;20440;-65
2024/01/18 11:27:41;;;;;;;1.50;0.97;;;;;;;12.11;66.75;93572.81;5064791;28;20436;-66
2024/01/18 11:30:33;;;;;;;1.60;1.00;;;;;;;11.96;66.72;93573.28;5062800;28;20552;-65
2024/01/18 11:32:58;;;;;;;3.07;1.17;;;;;;;11.95;67.23;93576.91;5067652;28;20458;-65